Last 7 Days

Middletown-South

Hourly Data | America/Los_Angeles
as of 5/3/26 3:13 PM PDT
Date & Time Temp (°F) RH (%) Dew Pt (°F) Wet Bulb (°F) Wind Dir (°) Wind Spd (mph) Wind Gust (mph) Leaf Wet (mins) BatVolt (V) Latest Rain (In) Max Rain Intensity (In/Hr) Precip 24Hr (In) Daily Rain (In) Daily Min Temp (°F) Daily Max Temp (°F) Daily Max Wind (mph) Daily Leaf Wet (Hrs)
5/3/26 - 1500 64.4 57 48.6 55.7 SW | 233 5.7 15.4 0.0 13.2 0.00 - - 0.00 46.3 65.2 15.4 5.3
5/3/26 - 1400 62.6 60 48.7 55.1 WSW | 237 5.2 12.9 0.0 13.2 0.00 - - 0.00 46.3 64.8 12.9 5.3
5/3/26 - 1300 62.3 61 48.9 55.1 NW | 305 3.9 12.0 0.0 13.2 0.00 - - 0.00 46.3 63.0 12.0 5.3
5/3/26 - 1200 60.7 63 48.2 54.2 SE | 132 2.6 8.3 0.0 13.3 0.00 - - 0.00 46.3 62.4 8.3 5.3
5/3/26 - 1100 57.3 70 47.6 52.6 SE | 146 2.3 7.8 0.0 13.4 0.00 - - 0.00 46.3 59.1 7.8 5.3
5/3/26 - 1000 55.3 76 47.8 51.9 E | 101 2.0 6.0 0.0 13.4 0.00 - - 0.00 46.3 56.2 6.0 5.3
5/3/26 - 0900 52.8 84 48.1 51.0 NNE | 15 0.7 4.4 0.0 13.5 0.00 - - 0.00 46.3 54.4 4.4 5.3
5/3/26 - 0800 49.6 94 47.9 49.4 S | 190 0.8 3.4 53.6 13.5 0.00 - - 0.00 46.3 51.4 3.4 5.3
5/3/26 - 0700 46.9 97 46.0 47.0 SW | 225 0.3 1.4 60.0 12.6 0.00 - - 0.00 46.3 49.4 2.5 4.4
5/3/26 - 0600 46.8 96 45.7 46.8 SSW | 211 0.2 1.4 60.0 12.5 0.00 - - 0.00 46.3 49.4 2.5 3.4
5/3/26 - 0500 47.1 96 46.0 47.1 SW | 218 0.3 1.3 60.0 12.6 0.00 - - 0.00 46.8 49.4 2.5 2.4
5/3/26 - 0400 47.4 95 46.1 47.3 SW | 228 0.4 2.1 60.0 12.6 0.00 - - 0.00 46.9 49.4 2.5 1.4
5/3/26 - 0300 47.9 94 46.3 47.7 SSW | 197 0.3 2.1 26.5 12.6 0.00 - - 0.00 47.5 49.4 2.5 0.4
5/3/26 - 0200 48.8 92 46.5 48.2 SSW | 207 0.7 2.5 0.0 12.6 0.00 - - 0.00 48.1 49.4 2.5 0.0
5/3/26 - 0100 49.2 92 46.9 48.6 S | 183 1.0 2.5 0.0 12.6 0.00 - - 0.00 47.4 75.5 11.4 6.3
5/3/26 - 0000 50.1 89 47.1 49.2 SSW | 206 0.8 2.2 0.0 12.6 0.00 - - 0.00 47.4 75.5 11.4 6.3
5/2/26 - 2300 51.3 86 47.3 49.8 SSW | 193 0.8 2.4 0.0 12.6 0.00 - - 0.00 47.4 75.5 11.4 6.3
5/2/26 - 2200 52.3 84 47.8 50.6 SSW | 206 1.0 2.6 0.0 12.7 0.00 - - 0.00 47.4 75.5 11.4 6.3
5/2/26 - 2100 55.2 79 48.8 52.4 S | 184 1.2 3.7 0.0 12.8 0.00 - - 0.00 47.4 75.5 11.4 6.3
5/2/26 - 2000 59.0 70 49.4 54.3 SE | 142 2.1 6.0 0.0 12.9 0.00 - - 0.00 47.4 75.5 11.4 6.3
5/2/26 - 1900 63.8 61 50.0 56.3 SSE | 147 2.0 7.7 0.0 13.2 0.00 - - 0.00 47.4 75.5 11.4 6.3
5/2/26 - 1800 66.5 55 49.8 57.1 SW | 224 2.9 8.7 0.0 13.2 0.00 - - 0.00 47.4 75.5 11.4 6.3
5/2/26 - 1700 69.3 49 49.1 57.6 WSW | 254 2.8 10.1 0.0 13.1 0.00 - - 0.00 47.4 75.5 11.4 6.3
5/2/26 - 1600 69.1 53 51.3 58.7 W | 266 4.3 11.4 0.0 13.1 0.00 - - 0.00 47.4 75.5 11.4 6.3
5/2/26 - 1500 72.8 44 49.8 58.9 E | 95 2.9 9.4 0.0 13.1 0.00 - - 0.00 47.4 75.5 9.4 6.3
5/2/26 - 1400 73.7 36 45.4 56.8 ESE | 121 2.7 8.3 0.0 13.1 0.00 - - 0.00 47.4 75.5 9.4 6.3
5/2/26 - 1300 70.8 47 49.5 58.2 ENE | 61 3.8 8.7 0.0 13.2 0.00 - - 0.00 47.4 72.5 9.4 6.3
5/2/26 - 1200 68.1 53 50.4 57.9 NE | 44 4.4 9.4 0.0 13.2 0.00 - - 0.00 47.4 69.7 9.4 6.3
5/2/26 - 1100 64.1 64 51.6 57.3 NNE | 26 3.0 7.3 0.0 13.2 0.00 - - 0.00 47.4 66.3 7.3 6.3
5/2/26 - 1000 59.5 73 50.7 55.2 N | 4 2.1 6.2 0.0 13.3 0.00 - - 0.00 47.4 62.1 6.2 6.3
5/2/26 - 0900 54.6 82 49.2 52.4 NNE | 25 0.9 4.2 0.0 13.4 0.00 - - 0.00 47.4 58.0 4.2 6.3
5/2/26 - 0800 50.0 91 47.5 49.4 SSE | 153 0.3 2.5 54.6 13.2 0.00 - - 0.00 47.4 52.4 2.8 6.3
5/2/26 - 0700 48.0 94 46.4 47.8 SSW | 203 0.7 2.8 60.0 12.5 0.00 - - 0.00 47.4 51.9 2.8 5.4
5/2/26 - 0600 47.8 95 46.6 47.8 S | 176 0.7 2.7 60.0 12.5 0.00 - - 0.00 47.4 51.9 2.7 4.4
5/2/26 - 0500 47.7 96 46.5 47.7 SSW | 207 0.4 1.6 60.0 12.5 0.00 - - 0.00 47.4 51.9 2.3 3.4
5/2/26 - 0400 48.4 95 46.9 48.2 SSW | 204 0.8 1.6 60.0 12.5 0.00 - - 0.00 47.8 51.9 2.3 2.4
5/2/26 - 0300 49.8 94 48.0 49.5 SSW | 201 0.8 2.0 60.0 12.6 0.00 - - 0.00 48.8 51.9 2.3 1.4
5/2/26 - 0200 51.0 93 49.0 50.7 SSW | 199 1.1 2.3 25.3 12.6 0.00 - - 0.00 50.2 51.9 2.3 0.4
5/2/26 - 0100 52.7 90 49.9 52.0 SSW | 201 0.9 2.5 0.0 12.6 0.00 - - 0.00 46.0 82.5 17.4 7.2
5/2/26 - 0000 55.4 83 50.2 53.3 S | 178 1.0 4.1 0.0 12.6 0.00 - - 0.00 46.0 82.5 17.4 7.2
5/1/26 - 2300 59.2 73 50.7 55.1 SE | 143 2.0 4.9 0.0 12.6 0.00 - - 0.00 46.0 82.5 17.4 7.2
5/1/26 - 2200 63.7 65 51.7 57.3 SSE | 151 2.3 9.6 0.0 12.7 0.00 - - 0.00 46.0 82.5 17.4 7.2
5/1/26 - 2100 67.2 59 52.4 58.8 S | 175 3.2 9.2 0.0 12.7 0.00 - - 0.00 46.0 82.5 17.4 7.2
5/1/26 - 2000 70.8 49 50.8 58.9 SSW | 193 3.0 9.8 0.0 12.8 0.00 - - 0.00 46.0 82.5 17.4 7.2
5/1/26 - 1900 74.7 40 48.6 58.7 SW | 230 6.0 15.7 0.0 13.0 0.00 - - 0.00 46.0 82.5 17.4 7.2
5/1/26 - 1800 76.8 37 48.3 59.1 SW | 231 6.8 15.0 0.0 13.1 0.00 - - 0.00 46.0 82.5 17.4 7.2
5/1/26 - 1700 78.0 30 43.8 57.2 SW | 230 6.8 17.4 0.0 13.1 0.00 - - 0.00 46.0 82.5 17.4 7.2
5/1/26 - 1600 78.4 26 40.8 56.1 SW | 235 6.9 15.7 0.0 13.1 0.00 - - 0.00 46.0 82.5 15.7 7.2
5/1/26 - 1500 79.9 27 43.2 57.5 WSW | 237 6.8 14.9 0.0 13.0 0.00 - - 0.00 46.0 82.5 14.9 7.2
5/1/26 - 1400 81.7 28 45.1 58.7 W | 260 4.4 11.7 0.0 13.0 0.00 - - 0.00 46.0 82.5 11.7 7.2
5/1/26 - 1300 80.1 34 49.2 60.3 ENE | 68 2.2 7.1 0.0 13.0 0.00 - - 0.00 46.0 81.4 8.8 7.2
5/1/26 - 1200 77.7 36 49.0 59.6 NE | 43 4.1 8.8 0.0 13.1 0.00 - - 0.00 46.0 79.0 8.8 7.2
5/1/26 - 1100 74.7 42 49.8 59.4 NE | 38 2.5 6.2 0.0 13.1 0.00 - - 0.00 46.0 77.1 6.2 7.2
5/1/26 - 1000 70.3 48 49.6 58.1 NNE | 24 1.2 3.8 0.0 13.2 0.00 - - 0.00 46.0 73.1 3.8 7.2
5/1/26 - 0900 64.0 61 50.1 56.4 NE | 49 0.8 2.8 19.0 13.3 0.00 - - 0.00 46.0 68.3 2.8 7.2
5/1/26 - 0800 55.0 82 49.5 52.7 E | 97 0.4 2.4 60.0 13.4 0.00 - - 0.00 46.0 59.8 2.5 6.9
5/1/26 - 0700 47.1 97 46.3 47.2 SSW | 201 0.4 1.9 60.0 12.8 0.00 - - 0.00 46.0 51.5 2.5 5.9
5/1/26 - 0600 47.0 96 46.0 47.0 SSW | 200 0.9 1.9 60.0 12.5 0.00 - - 0.00 46.4 51.5 2.5 4.9
5/1/26 - 0500 47.9 95 46.6 47.8 SSW | 202 1.3 2.2 60.0 12.5 0.00 - - 0.00 47.5 51.5 2.5 3.9
5/1/26 - 0400 48.6 94 47.1 48.4 SW | 218 1.2 2.2 60.0 12.5 0.00 - - 0.00 47.8 51.5 2.5 2.9
5/1/26 - 0300 49.6 93 47.8 49.4 SW | 214 1.4 2.4 60.0 12.6 0.00 - - 0.00 48.8 51.5 2.5 1.9
5/1/26 - 0200 50.7 92 48.6 50.4 SW | 216 1.5 2.5 52.0 12.6 0.00 - - 0.00 49.9 51.5 2.5 0.9
5/1/26 - 0100 52.2 90 49.4 51.5 SW | 217 1.6 4.4 0.0 12.6 0.00 - - 0.00 42.9 80.2 18.5 6.6
5/1/26 - 0000 54.2 86 50.0 52.7 SW | 221 1.6 3.7 0.0 12.6 0.00 - - 0.00 42.9 80.2 18.5 6.6
4/30/26 - 2300 57.0 78 50.4 54.1 SSW | 201 2.0 5.0 0.0 12.6 0.00 - - 0.00 42.9 80.2 18.5 6.6
4/30/26 - 2200 59.3 75 51.2 55.5 SW | 214 2.0 3.8 0.0 12.6 0.00 - - 0.00 42.9 80.2 18.5 6.6
4/30/26 - 2100 66.3 56 50.2 57.2 S | 176 2.2 5.5 0.0 12.7 0.00 - - 0.00 42.9 80.2 18.5 6.6
4/30/26 - 2000 72.2 43 48.7 58.1 SW | 222 5.0 13.9 0.0 12.8 0.00 - - 0.00 42.9 80.2 18.5 6.6
4/30/26 - 1900 74.2 42 49.7 59.2 SW | 227 7.2 15.9 0.0 13.0 0.00 - - 0.00 42.9 80.2 18.5 6.6
4/30/26 - 1800 75.4 44 52.1 60.8 SW | 231 8.2 18.5 0.0 13.1 0.00 - - 0.00 42.9 80.2 18.5 6.6
4/30/26 - 1700 77.0 39 50.2 60.1 SW | 225 7.8 17.4 0.0 13.1 0.00 - - 0.00 42.9 80.2 18.2 6.6
4/30/26 - 1600 77.6 38 49.7 60.0 SW | 224 7.5 17.9 0.0 13.1 0.00 - - 0.00 42.9 80.2 18.2 6.6
4/30/26 - 1500 77.3 36 48.2 59.1 SW | 228 8.4 18.2 0.0 13.1 0.00 - - 0.00 42.9 80.2 18.2 6.6
4/30/26 - 1400 78.4 35 48.1 59.4 WSW | 244 5.8 17.5 0.0 13.1 0.00 - - 0.00 42.9 80.2 17.5 6.6
4/30/26 - 1300 78.2 31 45.0 57.8 ESE | 108 2.6 8.6 0.0 13.1 0.00 - - 0.00 42.9 79.3 9.4 6.6
4/30/26 - 1200 76.8 33 45.8 57.8 E | 101 2.8 9.4 0.0 13.1 0.00 - - 0.00 42.9 78.1 9.4 6.6
4/30/26 - 1100 73.9 39 47.5 57.9 ESE | 102 2.0 6.0 0.0 13.2 0.00 - - 0.00 42.9 75.9 6.0 6.6
4/30/26 - 1000 69.2 45 47.1 56.4 ENE | 66 1.4 4.5 0.0 13.2 0.00 - - 0.00 42.9 72.4 4.5 6.6
4/30/26 - 0900 63.1 57 47.4 54.6 ENE | 64 0.8 3.2 16.1 13.3 0.00 - - 0.00 42.9 66.2 3.2 6.6
4/30/26 - 0800 52.9 80 46.8 50.2 S | 189 0.2 1.8 60.0 13.5 0.00 - - 0.00 42.9 60.3 2.7 6.4
4/30/26 - 0700 43.8 97 42.8 43.7 SSW | 204 1.4 2.3 60.0 12.9 0.00 - - 0.00 42.9 48.2 2.7 5.4
4/30/26 - 0600 43.6 96 42.5 43.4 SW | 216 1.3 2.4 60.0 12.5 0.00 - - 0.00 42.9 48.2 2.7 4.4
4/30/26 - 0500 44.2 95 42.9 43.9 SSW | 201 1.3 2.7 60.0 12.5 0.00 - - 0.00 43.6 48.2 2.7 3.4
4/30/26 - 0400 44.9 94 43.4 44.6 SSW | 211 1.1 2.0 60.0 12.5 0.00 - - 0.00 44.3 48.2 2.5 2.4
4/30/26 - 0300 46.0 93 44.0 45.4 SSW | 205 1.3 2.5 60.0 12.6 0.00 - - 0.00 45.3 48.2 2.5 1.4
4/30/26 - 0200 47.2 91 44.8 46.4 SW | 214 1.1 2.4 21.4 12.6 0.00 - - 0.00 46.3 48.2 2.4 0.4
4/30/26 - 0100 48.5 89 45.4 47.5 SSW | 205 1.5 3.2 0.0 12.6 0.00 - - 0.00 41.0 77.1 16.9 7.3
4/30/26 - 0000 50.6 84 46.0 48.7 SW | 217 1.5 3.6 0.0 12.6 0.00 - - 0.00 41.0 77.1 16.9 7.3
4/29/26 - 2300 53.2 78 46.4 50.1 SSW | 206 1.7 4.8 0.0 12.6 0.00 - - 0.00 41.0 77.1 16.9 7.3
4/29/26 - 2200 59.1 62 45.8 52.2 S | 180 1.7 6.6 0.0 12.7 0.00 - - 0.00 41.0 77.1 16.9 7.3
4/29/26 - 2100 63.5 49 44.0 53.0 SSE | 159 2.3 6.5 0.0 12.7 0.00 - - 0.00 41.0 77.1 16.9 7.3
4/29/26 - 2000 67.7 41 42.9 53.9 SSW | 208 3.1 16.9 0.0 12.8 0.00 - - 0.00 41.0 77.1 16.9 7.3
4/29/26 - 1900 70.8 40 45.5 56.0 WSW | 246 5.2 13.2 0.0 13.0 0.00 - - 0.00 41.0 77.1 16.0 7.3
4/29/26 - 1800 72.5 41 47.3 57.5 WSW | 241 5.8 14.5 0.0 13.1 0.00 - - 0.00 41.0 77.1 16.0 7.3
4/29/26 - 1700 74.1 39 47.8 58.1 SW | 229 6.2 14.9 0.0 13.1 0.00 - - 0.00 41.0 77.1 16.0 7.3
4/29/26 - 1600 75.7 35 46.4 57.8 SSW | 198 3.5 10.6 0.0 13.1 0.00 - - 0.00 41.0 77.1 16.0 7.3
4/29/26 - 1500 74.5 37 46.3 57.5 SW | 218 5.1 15.6 0.0 13.1 0.00 - - 0.00 41.0 76.6 16.0 7.3
4/29/26 - 1400 73.1 37 45.4 56.7 SW | 216 6.7 15.7 0.0 13.1 0.00 - - 0.00 41.0 74.6 16.0 7.3
4/29/26 - 1300 73.0 36 44.1 56.1 WNW | 288 4.3 16.0 0.0 13.2 0.00 - - 0.00 41.0 74.2 16.0 7.3
4/29/26 - 1200 71.8 34 41.8 54.7 ESE | 118 2.1 7.0 0.0 13.2 0.00 - - 0.00 41.0 73.1 7.0 7.3
4/29/26 - 1100 69.1 44 46.0 55.8 ENE | 71 2.1 6.2 0.0 13.2 0.00 - - 0.00 41.0 70.9 6.2 7.3
4/29/26 - 1000 65.1 54 48.2 55.7 NE | 55 1.8 6.1 0.0 13.3 0.00 - - 0.00 41.0 68.0 6.1 7.3
4/29/26 - 0900 59.3 65 47.6 53.3 ENE | 74 1.2 4.2 16.5 13.4 0.00 - - 0.00 41.0 61.8 4.2 7.3
4/29/26 - 0800 49.4 88 46.0 48.1 SSE | 157 0.6 3.5 60.0 13.5 0.00 - - 0.00 41.0 54.4 3.5 7.0
4/29/26 - 0700 41.7 100 41.7 42.0 SSW | 200 1.0 2.2 60.0 12.8 0.00 - - 0.00 41.0 46.3 2.8 6.0
4/29/26 - 0600 41.9 98 41.3 41.9 SSW | 212 1.0 2.3 60.0 12.5 0.00 - - 0.00 41.1 46.3 2.8 5.0
4/29/26 - 0500 42.8 97 42.0 42.7 SW | 220 0.7 1.8 60.0 12.5 0.00 - - 0.00 42.0 46.3 2.8 4.0
4/29/26 - 0400 43.6 96 42.6 43.4 SSW | 205 1.4 2.6 60.0 12.5 0.00 - - 0.00 42.9 46.3 2.8 3.0
4/29/26 - 0300 44.4 96 43.2 44.3 SSW | 206 1.4 2.4 60.0 12.6 0.00 - - 0.00 43.7 46.3 2.8 2.0
4/29/26 - 0200 45.4 94 43.9 45.1 SW | 221 1.3 2.8 60.0 12.6 0.00 - - 0.00 44.6 46.3 2.8 1.0
4/29/26 - 0100 46.7 92 44.6 46.1 SSW | 210 1.5 3.4 22.8 12.6 0.00 - - 0.00 39.0 71.5 15.3 7.3
4/29/26 - 0000 48.0 89 45.0 47.0 SSW | 212 1.3 3.1 0.0 12.6 0.00 - - 0.00 39.0 71.5 15.3 7.0
4/28/26 - 2300 50.8 82 45.5 48.6 SSW | 194 1.5 4.7 0.0 12.6 0.00 - - 0.00 39.0 71.5 15.3 7.0
4/28/26 - 2200 55.7 67 45.0 50.5 S | 189 1.6 5.0 0.0 12.7 0.00 - - 0.00 39.0 71.5 15.3 7.0
4/28/26 - 2100 60.6 54 43.8 51.8 SSE | 168 2.5 10.4 0.0 12.7 0.00 - - 0.00 39.0 71.5 15.3 7.0
4/28/26 - 2000 63.1 48 43.1 52.4 WSW | 237 5.2 14.5 0.0 12.9 0.00 - - 0.00 39.0 71.5 15.3 7.0
4/28/26 - 1900 66.2 46 44.7 54.3 SW | 235 5.9 15.2 0.0 13.1 0.00 - - 0.00 39.0 71.5 15.3 7.0
4/28/26 - 1800 68.4 45 46.4 55.8 SW | 228 5.6 15.3 0.0 13.2 0.00 - - 0.00 39.0 71.5 15.3 7.0
4/28/26 - 1700 69.3 43 45.9 55.8 SW | 223 5.5 14.4 0.0 13.2 0.00 - - 0.00 39.0 71.5 14.4 7.0
4/28/26 - 1600 69.6 42 45.6 55.7 W | 260 5.1 13.9 0.0 13.2 0.00 - - 0.00 39.0 71.5 13.9 7.0
4/28/26 - 1500 70.1 42 45.6 55.9 WSW | 245 4.0 9.6 0.0 13.2 0.00 - - 0.00 39.0 71.5 11.5 7.0
4/28/26 - 1400 68.9 36 41.1 53.5 SSE | 159 3.1 9.2 0.0 13.2 0.00 - - 0.00 39.0 70.4 11.5 7.0
4/28/26 - 1300 66.6 38 40.3 52.4 ESE | 113 2.5 9.4 0.0 13.2 0.00 - - 0.00 39.0 68.7 11.5 7.0
4/28/26 - 1200 65.4 44 43.2 53.2 NE | 42 2.8 11.5 0.0 13.3 0.00 - - 0.00 39.0 67.2 11.5 7.0
4/28/26 - 1100 63.1 47 42.8 52.2 E | 86 2.7 7.0 0.0 13.3 0.00 - - 0.00 39.0 65.4 7.0 7.0
4/28/26 - 1000 60.1 58 45.2 52.3 NE | 35 2.0 5.8 0.0 13.3 0.00 - - 0.00 39.0 62.1 5.8 7.0
4/28/26 - 0900 55.2 72 46.3 50.9 ENE | 61 1.3 3.5 0.0 13.4 0.00 - - 0.00 39.0 58.4 4.6 7.0
4/28/26 - 0800 46.9 91 44.3 46.0 SSE | 156 0.5 4.6 57.0 13.5 0.00 - - 0.00 39.0 52.8 4.6 7.0
4/28/26 - 0700 39.7 100 39.7 39.9 S | 187 0.8 2.4 60.0 12.8 0.00 - - 0.00 39.0 44.2 3.0 6.0
4/28/26 - 0600 39.8 99 39.4 39.8 SSW | 195 0.9 1.8 60.0 12.5 0.00 - - 0.00 39.2 44.2 3.0 5.0
4/28/26 - 0500 40.5 97 39.8 40.4 SSW | 195 0.9 1.9 60.0 12.5 0.00 - - 0.00 39.7 44.2 3.0 4.0
4/28/26 - 0400 41.2 96 40.3 41.0 SSW | 204 1.0 2.3 60.0 12.6 0.00 - - 0.00 40.5 44.2 3.0 3.0
4/28/26 - 0300 42.3 96 41.2 42.0 SSW | 212 1.1 3.0 60.0 12.6 0.00 - 0.01 0.00 41.2 44.2 3.0 2.0
4/28/26 - 0200 43.4 95 42.0 43.1 SSW | 205 1.0 2.3 60.0 12.6 0.00 - 0.01 0.00 42.6 44.2 2.3 1.0
4/28/26 - 0100 44.7 93 42.8 44.2 SSW | 204 1.1 2.4 53.3 12.6 0.00 - 0.01 0.01 43.9 65.8 19.1 7.2
4/28/26 - 0000 47.5 86 43.7 46.0 SSW | 199 0.9 3.0 0.0 12.6 0.00 - 0.01 0.01 45.4 65.8 19.1 6.3
4/27/26 - 2300 51.8 73 43.5 48.0 S | 177 1.4 4.5 0.0 12.7 0.00 - 0.01 0.01 46.7 65.8 19.1 6.3
4/27/26 - 2200 54.8 65 43.1 49.1 S | 180 2.3 9.8 0.0 12.7 0.00 - 0.01 0.01 46.7 65.8 19.1 6.3
4/27/26 - 2100 55.2 63 43.0 49.2 SSW | 209 3.2 13.3 0.0 12.8 0.00 - 0.01 0.01 46.7 65.8 19.1 6.3
4/27/26 - 2000 56.4 62 43.7 50.1 WSW | 241 6.3 16.9 0.0 12.9 0.00 - 0.01 0.01 46.7 65.8 19.1 6.3
4/27/26 - 1900 59.3 59 45.1 52.0 SW | 235 7.5 19.1 0.0 13.2 0.00 - 0.01 0.01 46.7 65.8 19.1 6.3
4/27/26 - 1800 61.6 56 45.8 53.2 SW | 232 7.1 17.4 0.0 13.3 0.00 - 0.01 0.01 46.7 65.8 17.4 6.3
4/27/26 - 1700 64.2 47 43.4 52.9 WSW | 241 4.8 15.6 0.0 13.2 0.00 - 0.01 0.01 46.7 65.8 15.6 6.3
4/27/26 - 1600 63.4 47 43.1 52.5 WSW | 249 4.1 10.6 0.0 13.2 0.00 - 0.01 0.01 46.7 65.4 12.3 6.3
4/27/26 - 1500 64.0 40 39.0 50.9 N | 0 3.2 9.3 0.0 13.2 0.00 - 0.01 0.01 46.7 65.1 12.3 6.3
4/27/26 - 1400 62.8 40 38.1 50.1 ESE | 122 3.4 12.3 0.0 13.2 0.00 - 0.01 0.01 46.7 64.6 12.3 6.3
4/27/26 - 1300 60.8 43 38.4 49.4 ENE | 62 3.5 10.4 0.0 13.3 0.00 - 0.01 0.01 46.7 61.9 10.4 6.3
4/27/26 - 1200 59.3 49 40.0 49.5 E | 86 4.3 10.4 0.0 13.3 0.00 - 0.01 0.01 46.7 60.6 10.4 6.3
4/27/26 - 1100 56.1 59 41.8 49.0 NNE | 24 3.6 10.4 0.0 13.4 0.00 - 0.01 0.01 46.7 58.4 10.4 6.3
4/27/26 - 1000 52.9 70 43.4 48.4 NNE | 29 3.8 9.5 0.0 13.4 0.00 - 0.01 0.01 46.7 55.5 9.5 6.3
4/27/26 - 0900 52.8 79 46.5 50.0 SE | 124 1.8 9.5 23.2 13.4 0.00 - 0.01 0.01 46.7 55.5 9.5 6.3
4/27/26 - 0800 48.3 93 46.4 47.9 SSE | 152 0.3 2.3 60.0 13.2 0.00 - 0.01 0.01 46.7 49.7 4.2 5.9
4/27/26 - 0700 47.1 94 45.6 46.9 SSE | 167 0.4 2.3 60.0 12.5 0.00 - 0.01 0.01 46.7 49.4 4.2 4.9
4/27/26 - 0600 47.1 95 45.7 46.9 S | 179 0.6 3.8 60.0 12.5 0.00 - 0.01 0.01 46.7 49.4 4.2 3.9
4/27/26 - 0500 47.1 95 45.8 47.0 SSW | 203 0.6 1.8 60.0 12.6 0.00 - 0.01 0.01 46.8 49.4 4.2 2.9
4/27/26 - 0400 47.6 93 45.7 47.2 SSW | 210 0.6 2.0 60.0 12.6 0.01 0.01 0.01 0.01 47.2 49.4 4.2 1.9
4/27/26 - 0300 48.2 91 45.6 47.4 SW | 225 0.6 1.6 56.8 12.6 0.00 - - 0.00 47.7 49.4 4.2 0.9
4/27/26 - 0200 48.7 86 44.9 47.3 SSE | 164 0.7 4.2 0.0 12.6 0.00 - - 0.00 48.3 49.4 4.2 0.0
4/27/26 - 0100 49.6 82 44.3 47.4 SE | 144 0.3 2.0 0.0 12.6 0.00 - - 0.00 40.5 59.1 20.9 0.6
4/27/26 - 0000 50.2 78 43.7 47.3 S | 172 1.0 3.6 0.0 12.6 0.00 - - 0.00 40.5 59.1 20.9 0.6
4/26/26 - 2300 50.7 76 43.4 47.4 S | 187 1.8 8.3 0.0 12.7 0.00 - - 0.00 40.5 59.1 20.9 0.6
4/26/26 - 2200 50.8 76 43.3 47.4 SW | 227 4.9 17.0 0.0 12.8 0.00 - - 0.00 40.5 59.1 20.9 0.6
4/26/26 - 2100 51.4 73 43.2 47.6 SW | 228 6.4 14.5 0.0 12.9 0.00 - - 0.00 40.5 59.1 20.9 0.6
4/26/26 - 2000 53.0 67 42.4 48.0 WSW | 249 7.1 17.0 0.0 13.0 0.00 - - 0.00 40.5 59.1 20.9 0.6
4/26/26 - 1900 55.0 61 41.7 48.5 WSW | 254 6.7 16.9 0.0 13.4 0.00 - - 0.00 40.5 59.1 20.9 0.6
4/26/26 - 1800 56.0 60 42.3 49.2 WSW | 247 6.3 18.6 0.0 13.4 0.00 - - 0.00 40.5 59.1 20.9 0.6
4/26/26 - 1700 55.2 61 42.1 48.8 SW | 225 8.9 20.1 0.0 13.4 0.00 - - 0.00 40.5 59.1 20.9 0.6
4/26/26 - 1600 57.1 56 41.5 49.3 SW | 222 8.7 20.8 0.0 13.4 0.00 - - 0.00 40.5 59.1 20.9 0.6
Max 81.7 100 52.4 60.8 - 8.9 20.8 60.0 13.5 0.01 - 0.01 0.01 50.2 82.5 20.9 7.3
Avg 58.3 68 45.9 51.5 - 2.7 7.6 16.9 12.9 0.00 - 0.01 - - - - -
Min 39.7 26 38.1 39.8 - 0.2 1.3 0.0 12.5 0.00 - 0.01 0.00 39.0 44.2 2.3 0.0
Total - - - - - - - - - 0.01 - - - - - - -